createdAt,value
2023-06-11T00:01:09.815Z,43.35
2023-06-11T00:03:42.231Z,43.15
2023-06-11T00:06:12.649Z,43.28
2023-06-11T00:08:40.347Z,44.03
2023-06-11T00:11:07.978Z,43.54
2023-06-11T00:13:36.108Z,43.63
2023-06-11T00:16:03.944Z,43.68
2023-06-11T00:18:32.255Z,43.80
2023-06-11T00:21:01.328Z,44.11
2023-06-11T00:23:29.038Z,44.09
2023-06-11T00:25:57.197Z,44.02
2023-06-11T00:28:24.903Z,44.28
2023-06-11T00:30:53.805Z,44.24
2023-06-11T00:33:21.484Z,44.16
2023-06-11T00:35:49.714Z,44.38
2023-06-11T00:38:20.770Z,44.41
2023-06-11T00:40:49.022Z,44.83
2023-06-11T00:43:18.348Z,44.86
2023-06-11T00:45:46.445Z,44.96
2023-06-11T00:48:14.583Z,44.40
2023-06-11T00:50:47.001Z,44.95
2023-06-11T00:53:15.198Z,45.14
2023-06-11T00:55:44.277Z,44.81
2023-06-11T00:58:15.705Z,45.13
2023-06-11T01:00:46.580Z,45.28
2023-06-11T01:03:19.117Z,45.32
2023-06-11T01:05:50.486Z,45.93
2023-06-11T01:08:21.048Z,46.11
2023-06-11T01:10:50.457Z,46.28
2023-06-11T01:13:18.310Z,46.46
2023-06-11T01:15:46.384Z,46.85
2023-06-11T01:18:20.451Z,46.54
2023-06-11T01:20:52.863Z,46.39
2023-06-11T01:23:34.583Z,46.72
2023-06-11T01:26:17.883Z,46.58
2023-06-11T01:28:50.422Z,46.95
2023-06-11T01:31:20.272Z,47.06
2023-06-11T01:33:48.441Z,47.07
2023-06-11T01:36:18.309Z,47.53
2023-06-11T01:38:46.604Z,47.94
2023-06-11T01:41:14.516Z,47.71
2023-06-11T01:43:42.878Z,48.27
2023-06-11T01:46:11.973Z,48.03
2023-06-11T01:48:39.655Z,47.98
2023-06-11T01:51:08.421Z,48.33
2023-06-11T01:53:36.135Z,48.93
2023-06-11T01:56:04.342Z,48.98
2023-06-11T01:58:32.104Z,48.63
2023-06-11T02:01:00.348Z,48.62
2023-06-11T02:03:29.490Z,48.68
2023-06-11T02:05:57.752Z,49.18
2023-06-11T02:08:25.431Z,50.01
2023-06-11T02:10:53.063Z,49.95
2023-06-11T02:13:21.161Z,49.93
2023-06-11T02:15:48.851Z,49.89
2023-06-11T02:18:16.933Z,50.60
2023-06-11T02:20:45.945Z,50.49
2023-06-11T02:23:14.020Z,51.00
2023-06-11T02:25:41.735Z,50.72
2023-06-11T02:28:09.993Z,50.74
2023-06-11T02:30:37.665Z,51.08
2023-06-11T02:33:05.925Z,51.20
2023-06-11T02:35:33.624Z,50.91
2023-06-11T02:38:02.727Z,51.24
2023-06-11T02:40:31.250Z,51.34
2023-06-11T02:42:58.947Z,51.25
2023-06-11T02:45:26.968Z,51.58
2023-06-11T02:47:54.730Z,52.14
2023-06-11T02:50:22.754Z,51.91
2023-06-11T02:52:50.464Z,51.56
2023-06-11T02:55:19.642Z,51.70
2023-06-11T02:57:47.726Z,51.84
2023-06-11T03:00:15.913Z,52.16
2023-06-11T03:02:44.024Z,53.00
2023-06-11T03:05:12.198Z,52.60
2023-06-11T03:07:40.704Z,52.26
2023-06-11T03:10:09.408Z,52.33
2023-06-11T03:12:38.954Z,52.08
2023-06-11T03:15:08.052Z,52.37
2023-06-11T03:17:35.845Z,52.53
2023-06-11T03:20:03.973Z,52.59
2023-06-11T03:22:31.735Z,52.46
2023-06-11T03:24:59.829Z,52.76
2023-06-11T03:27:27.543Z,52.73
2023-06-11T03:29:56.661Z,52.74
2023-06-11T03:32:24.476Z,52.55
2023-06-11T03:34:53.333Z,53.05
2023-06-11T03:37:21.497Z,53.13
2023-06-11T03:39:49.261Z,53.29
2023-06-11T03:42:17.495Z,53.61
2023-06-11T03:44:45.189Z,53.27
2023-06-11T03:47:14.918Z,53.82
2023-06-11T03:49:42.704Z,53.46
2023-06-11T03:52:11.067Z,53.77
2023-06-11T03:54:38.818Z,53.86
2023-06-11T03:57:07.576Z,54.09
2023-06-11T03:59:35.280Z,54.01
2023-06-11T04:02:03.119Z,53.45
2023-06-11T04:04:34.016Z,53.75
2023-06-11T04:07:01.727Z,53.59
2023-06-11T04:09:30.506Z,53.85
2023-06-11T04:11:58.673Z,54.05
2023-06-11T04:14:26.822Z,54.43
2023-06-11T04:16:54.613Z,53.99
2023-06-11T04:19:22.970Z,54.06
2023-06-11T04:21:51.999Z,54.39
2023-06-11T04:24:19.705Z,53.80
2023-06-11T04:26:49.114Z,54.40
2023-06-11T04:29:19.436Z,54.11
2023-06-11T04:31:48.220Z,54.19
2023-06-11T04:34:18.167Z,54.52
2023-06-11T04:36:46.644Z,54.30
2023-06-11T04:39:15.825Z,54.16
2023-06-11T04:41:44.399Z,54.37
2023-06-11T04:44:12.568Z,54.78
2023-06-11T04:46:42.074Z,54.94
2023-06-11T04:49:10.209Z,54.56
2023-06-11T04:51:41.660Z,54.53
2023-06-11T04:54:09.829Z,54.50
2023-06-11T04:56:38.944Z,55.08
2023-06-11T04:59:07.518Z,55.18
2023-06-11T05:01:38.411Z,55.07
2023-06-11T05:04:06.407Z,54.79
2023-06-11T05:06:35.083Z,54.48
2023-06-11T05:09:02.823Z,54.45
2023-06-11T05:11:30.905Z,53.85
2023-06-11T05:14:00.232Z,54.06
2023-06-11T05:16:27.996Z,54.20
2023-06-11T05:18:56.134Z,53.91
2023-06-11T05:21:23.832Z,53.89
2023-06-11T05:23:52.012Z,54.56
2023-06-11T05:26:20.247Z,55.04
2023-06-11T05:28:48.397Z,54.08
2023-06-11T05:31:17.492Z,54.21
2023-06-11T05:33:45.560Z,53.09
2023-06-11T05:36:13.272Z,53.53
2023-06-11T05:38:41.544Z,54.39
2023-06-11T05:41:09.269Z,54.59
2023-06-11T05:43:37.866Z,54.46
2023-06-11T05:46:06.093Z,53.91
2023-06-11T05:48:35.533Z,53.68
2023-06-11T05:51:03.201Z,53.40
2023-06-11T05:53:31.299Z,53.20
2023-06-11T05:56:04.317Z,53.24
2023-06-11T05:58:33.537Z,53.11
2023-06-11T06:01:03.447Z,52.46
2023-06-11T06:03:32.184Z,53.19
2023-06-11T06:06:02.625Z,53.75
2023-06-11T06:08:31.788Z,54.32
2023-06-11T06:11:00.056Z,54.35
2023-06-11T06:13:28.623Z,53.37
2023-06-11T06:15:56.290Z,52.09
2023-06-11T06:18:24.855Z,51.48
2023-06-11T06:20:52.542Z,51.19
2023-06-11T06:23:22.365Z,51.59
2023-06-11T06:25:50.041Z,51.95
2023-06-11T06:28:18.628Z,51.67
2023-06-11T06:30:46.371Z,51.22
2023-06-11T06:33:14.580Z,51.35
2023-06-11T06:35:42.668Z,50.92
2023-06-11T06:38:10.384Z,50.92
2023-06-11T06:40:40.031Z,48.85
2023-06-11T06:43:07.870Z,48.40
2023-06-11T06:45:36.357Z,49.32
2023-06-11T06:48:04.097Z,49.94
2023-06-11T06:50:32.902Z,49.15
2023-06-11T06:53:00.778Z,49.30
2023-06-11T06:55:28.545Z,49.05
2023-06-11T06:57:57.996Z,49.26
2023-06-11T07:00:26.336Z,49.14
2023-06-11T07:02:54.127Z,49.44
2023-06-11T07:05:22.261Z,49.25
2023-06-11T07:07:49.959Z,48.74
2023-06-11T07:10:19.367Z,48.10
2023-06-11T07:12:47.114Z,48.08
2023-06-11T07:15:16.806Z,50.28
2023-06-11T07:17:44.483Z,48.47
2023-06-11T07:20:13.928Z,47.80
2023-06-11T07:22:42.335Z,48.45
2023-06-11T07:25:10.796Z,48.55
2023-06-11T07:27:38.934Z,47.39
2023-06-11T07:30:08.137Z,47.36
2023-06-11T07:32:38.751Z,47.69
2023-06-11T07:35:07.081Z,47.60
2023-06-11T07:37:35.392Z,46.97
2023-06-11T07:40:05.133Z,46.81
2023-06-11T07:42:32.948Z,46.01
2023-06-11T07:45:00.728Z,46.25
2023-06-11T07:47:28.773Z,47.50
2023-06-11T07:49:57.969Z,46.26
2023-06-11T07:52:26.765Z,46.08
2023-06-11T07:54:54.419Z,45.65
2023-06-11T07:57:22.509Z,45.59
2023-06-11T07:59:50.593Z,45.59
2023-06-11T08:02:18.341Z,46.39
2023-06-11T08:04:46.597Z,45.49
2023-06-11T08:07:15.862Z,44.97
2023-06-11T08:09:43.979Z,44.76
2023-06-11T08:12:13.059Z,44.83
2023-06-11T08:14:42.011Z,45.33
2023-06-11T08:17:10.920Z,45.37
2023-06-11T08:19:38.724Z,44.98
2023-06-11T08:22:07.466Z,44.85
2023-06-11T08:24:36.599Z,44.23
2023-06-11T08:27:04.956Z,43.93
2023-06-11T08:29:33.149Z,43.00
2023-06-11T08:32:01.652Z,43.90
2023-06-11T08:34:29.431Z,43.15
2023-06-11T08:36:57.278Z,43.40
2023-06-11T08:39:25.627Z,43.57
2023-06-11T08:41:55.044Z,43.39
2023-06-11T08:44:26.231Z,42.85
2023-06-11T08:46:56.728Z,42.66
2023-06-11T08:49:25.343Z,42.42
2023-06-11T08:51:53.006Z,41.63
2023-06-11T08:54:21.499Z,42.83
2023-06-11T08:56:49.841Z,42.54
2023-06-11T08:59:20.542Z,43.02
2023-06-11T09:01:51.886Z,43.23
2023-06-11T09:04:20.340Z,43.83
2023-06-11T09:06:52.477Z,42.39
2023-06-11T09:09:21.043Z,42.78
2023-06-11T09:11:48.936Z,43.43
2023-06-11T09:14:18.372Z,43.24
2023-06-11T09:16:47.634Z,43.26
2023-06-11T09:19:17.181Z,42.62
2023-06-11T09:21:52.162Z,42.24
2023-06-11T09:24:21.584Z,42.37
2023-06-11T09:26:51.114Z,42.32
2023-06-11T09:29:20.525Z,43.11
2023-06-11T09:31:48.323Z,41.22
2023-06-11T09:34:23.473Z,41.41
2023-06-11T09:36:52.927Z,40.96
2023-06-11T09:39:21.636Z,41.31
2023-06-11T09:41:50.149Z,39.56
2023-06-11T09:44:19.067Z,40.36
2023-06-11T09:46:48.845Z,42.37
2023-06-11T09:49:17.885Z,40.61
2023-06-11T09:51:45.906Z,39.39
2023-06-11T09:54:15.127Z,40.48
2023-06-11T09:56:43.932Z,39.93
2023-06-11T09:59:13.262Z,40.66
2023-06-11T10:01:42.727Z,39.88
2023-06-11T10:04:12.082Z,39.38
2023-06-11T10:06:45.341Z,38.69
2023-06-11T10:09:15.526Z,40.00
2023-06-11T10:11:45.210Z,40.40
2023-06-11T10:14:14.294Z,38.79
2023-06-11T10:16:42.669Z,37.62
2023-06-11T10:19:12.597Z,39.42
2023-06-11T10:21:44.462Z,38.18
2023-06-11T10:24:22.387Z,37.74
2023-06-11T10:27:05.971Z,37.58
2023-06-11T10:29:39.482Z,38.83
2023-06-11T10:32:17.848Z,37.81
2023-06-11T10:34:50.110Z,38.46
2023-06-11T10:37:28.996Z,37.55
2023-06-11T10:39:57.122Z,37.24
2023-06-11T10:42:26.324Z,36.54
2023-06-11T10:44:58.287Z,36.31
2023-06-11T10:47:26.699Z,37.24
2023-06-11T10:50:06.719Z,36.41
2023-06-11T10:52:34.923Z,33.17
2023-06-11T10:55:02.758Z,35.46
2023-06-11T10:57:30.952Z,37.09
2023-06-11T10:59:59.277Z,35.49
2023-06-11T11:02:28.550Z,37.12
2023-06-11T11:04:57.666Z,38.82
2023-06-11T11:07:35.828Z,37.02
2023-06-11T11:10:03.800Z,36.72
2023-06-11T11:12:37.628Z,35.44
2023-06-11T11:15:06.587Z,34.11
2023-06-11T11:17:35.017Z,34.52
2023-06-11T11:20:08.906Z,33.80
2023-06-11T11:22:37.089Z,35.15
2023-06-11T11:25:06.652Z,34.32
2023-06-11T11:27:38.540Z,36.12
2023-06-11T11:30:07.668Z,36.40
2023-06-11T11:32:37.486Z,36.92
2023-06-11T11:35:08.162Z,37.25
2023-06-11T11:37:36.431Z,37.55
2023-06-11T11:40:09.082Z,37.18
2023-06-11T11:42:46.689Z,38.96
2023-06-11T11:45:15.657Z,39.74
2023-06-11T11:47:44.375Z,36.38
2023-06-11T11:50:24.319Z,37.43
2023-06-11T11:53:04.660Z,37.55
2023-06-11T11:55:41.998Z,38.75
2023-06-11T11:58:17.681Z,39.56
2023-06-11T12:00:50.436Z,37.49
2023-06-11T12:03:21.390Z,35.53
2023-06-11T12:05:59.501Z,37.44
2023-06-11T12:08:28.604Z,38.24
2023-06-11T12:10:56.511Z,38.38
2023-06-11T12:13:24.389Z,39.04
2023-06-11T12:15:52.646Z,39.68
2023-06-11T12:18:20.612Z,39.24
2023-06-11T12:20:49.304Z,39.76
2023-06-11T12:23:18.431Z,41.10
2023-06-11T12:25:46.595Z,40.07
2023-06-11T12:28:14.364Z,38.57
2023-06-11T12:30:43.217Z,38.66
2023-06-11T12:33:11.677Z,37.06
2023-06-11T12:35:39.848Z,38.58
2023-06-11T12:38:07.919Z,36.39
2023-06-11T12:40:37.944Z,36.32
2023-06-11T12:43:06.116Z,36.82
2023-06-11T12:45:38.215Z,36.34
2023-06-11T12:48:06.723Z,38.18
2023-06-11T12:50:34.528Z,36.14
2023-06-11T12:53:03.523Z,37.14
2023-06-11T12:55:31.505Z,37.66
2023-06-11T12:58:00.554Z,36.69
2023-06-11T13:00:31.489Z,35.94
2023-06-11T13:02:59.607Z,34.92
2023-06-11T13:05:27.821Z,35.62
2023-06-11T13:07:56.394Z,37.46
2023-06-11T13:10:26.155Z,36.37
2023-06-11T13:12:56.535Z,36.18
2023-06-11T13:15:25.554Z,35.52
2023-06-11T13:17:53.330Z,36.39
2023-06-11T13:20:22.931Z,38.23
2023-06-11T13:22:51.076Z,36.98
2023-06-11T13:25:18.988Z,38.36
2023-06-11T13:27:47.441Z,37.42
2023-06-11T13:30:15.841Z,36.01
2023-06-11T13:32:47.108Z,35.38
2023-06-11T13:35:15.410Z,36.39
2023-06-11T13:37:43.449Z,37.44
2023-06-11T13:40:12.719Z,35.59
2023-06-11T13:42:41.226Z,34.47
2023-06-11T13:45:09.860Z,34.70
2023-06-11T13:47:37.525Z,34.63
2023-06-11T13:50:07.881Z,35.89
2023-06-11T13:52:36.022Z,33.90
2023-06-11T13:55:03.802Z,33.04
2023-06-11T13:57:32.653Z,33.04
2023-06-11T14:00:02.040Z,34.26
2023-06-11T14:02:29.793Z,34.71
2023-06-11T14:04:57.734Z,35.33
2023-06-11T14:07:27.068Z,35.61
2023-06-11T14:09:56.691Z,34.77
2023-06-11T14:12:24.734Z,36.23
2023-06-11T14:14:54.497Z,35.57
2023-06-11T14:17:22.712Z,36.14
2023-06-11T14:19:50.813Z,33.13
2023-06-11T14:22:18.840Z,34.31
2023-06-11T14:24:48.110Z,32.83
2023-06-11T14:27:15.802Z,34.02
2023-06-11T14:29:43.780Z,33.55
2023-06-11T14:32:14.197Z,31.45
2023-06-11T14:34:43.928Z,31.75
2023-06-11T14:37:12.410Z,32.50
2023-06-11T14:39:40.506Z,33.43
2023-06-11T14:42:10.250Z,32.62
2023-06-11T14:44:37.961Z,33.67
2023-06-11T14:47:06.738Z,33.57
2023-06-11T14:49:35.284Z,34.39
2023-06-11T14:52:09.339Z,34.59
2023-06-11T14:54:37.297Z,32.98
2023-06-11T14:57:14.094Z,33.78
2023-06-11T14:59:42.346Z,33.73
2023-06-11T15:02:10.640Z,30.97
2023-06-11T15:04:40.257Z,30.52
2023-06-11T15:07:20.266Z,31.29
2023-06-11T15:09:53.067Z,31.61
2023-06-11T15:12:22.688Z,32.39
2023-06-11T15:14:50.381Z,34.22
2023-06-11T15:17:18.627Z,35.45
2023-06-11T15:19:46.459Z,34.59
2023-06-11T15:22:14.699Z,35.55
2023-06-11T15:24:42.416Z,35.88
2023-06-11T15:27:10.771Z,38.61
2023-06-11T15:29:39.876Z,39.02
2023-06-11T15:32:08.926Z,44.14
2023-06-11T15:34:36.714Z,41.50
2023-06-11T15:37:05.268Z,46.82
2023-06-11T15:39:32.921Z,43.17
2023-06-11T15:42:00.623Z,42.81
2023-06-11T15:44:28.619Z,43.63
2023-06-11T15:46:57.642Z,42.25
2023-06-11T15:49:25.362Z,38.54
2023-06-11T15:51:53.480Z,38.92
2023-06-11T15:54:21.260Z,38.97
2023-06-11T15:56:49.565Z,38.92
2023-06-11T15:59:17.418Z,38.30
2023-06-11T16:01:45.184Z,37.03
2023-06-11T16:04:15.341Z,37.07
2023-06-11T16:06:43.115Z,36.24
2023-06-11T16:09:10.786Z,36.92
2023-06-11T16:11:39.347Z,36.53
2023-06-11T16:14:06.980Z,40.16
2023-06-11T16:16:35.301Z,38.03
2023-06-11T16:19:03.496Z,40.25
2023-06-11T16:21:32.502Z,37.97
2023-06-11T16:24:00.362Z,36.93
2023-06-11T16:26:28.113Z,37.25
2023-06-11T16:28:56.671Z,37.27
2023-06-11T16:31:24.789Z,37.08
2023-06-11T16:33:58.346Z,36.63
2023-06-11T16:36:27.213Z,35.80
2023-06-11T16:39:01.220Z,34.83
2023-06-11T16:41:34.223Z,35.38
2023-06-11T16:44:02.144Z,35.54
2023-06-11T16:46:29.946Z,35.67
2023-06-11T16:48:58.000Z,36.22
2023-06-11T16:51:25.780Z,35.17
2023-06-11T16:53:53.888Z,34.94
2023-06-11T16:56:23.162Z,35.40
2023-06-11T16:58:56.192Z,35.15
2023-06-11T17:01:24.644Z,35.50
2023-06-11T17:03:53.076Z,36.43
2023-06-11T17:06:20.914Z,35.92
2023-06-11T17:08:48.984Z,34.70
2023-06-11T17:11:16.675Z,35.73
2023-06-11T17:13:46.123Z,35.09
2023-06-11T17:16:14.902Z,34.95
2023-06-11T17:18:44.249Z,35.18
2023-06-11T17:21:12.390Z,35.46
2023-06-11T17:23:40.137Z,35.43
2023-06-11T17:26:08.402Z,35.77
2023-06-11T17:28:36.815Z,36.42
2023-06-11T17:31:06.544Z,35.19
2023-06-11T17:33:34.312Z,35.38
2023-06-11T17:36:02.023Z,35.38
2023-06-11T17:38:30.256Z,34.52
2023-06-11T17:40:58.135Z,34.89
2023-06-11T17:43:26.166Z,35.86
2023-06-11T17:45:53.850Z,36.37
2023-06-11T17:48:23.862Z,37.31
2023-06-11T17:50:51.546Z,35.51
2023-06-11T17:53:19.690Z,35.27
2023-06-11T17:55:50.305Z,35.57
2023-06-11T17:58:18.423Z,36.15
2023-06-11T18:00:46.539Z,36.19
2023-06-11T18:03:14.326Z,36.33
2023-06-11T18:05:43.748Z,36.63
2023-06-11T18:08:11.484Z,36.57
2023-06-11T18:10:39.273Z,36.31
2023-06-11T18:13:07.069Z,36.35
2023-06-11T18:15:36.343Z,36.73
2023-06-11T18:18:06.294Z,36.65
2023-06-11T18:20:34.614Z,36.69
2023-06-11T18:23:03.862Z,37.32
2023-06-11T18:25:32.107Z,37.47
2023-06-11T18:28:00.593Z,37.10
2023-06-11T18:30:28.721Z,37.52
2023-06-11T18:32:56.477Z,37.75
2023-06-11T18:35:24.553Z,37.69
2023-06-11T18:37:52.360Z,38.07
2023-06-11T18:40:22.000Z,39.30
2023-06-11T18:42:49.709Z,38.78
2023-06-11T18:45:17.828Z,38.68
2023-06-11T18:47:45.568Z,38.82
2023-06-11T18:50:13.598Z,38.56
2023-06-11T18:52:41.774Z,38.65
2023-06-11T18:55:10.213Z,39.08
2023-06-11T18:57:39.551Z,38.96
2023-06-11T19:00:08.450Z,39.16
2023-06-11T19:02:36.688Z,38.68
2023-06-11T19:05:04.674Z,38.80
2023-06-11T19:07:33.254Z,39.26
2023-06-11T19:10:01.231Z,39.34
2023-06-11T19:12:28.986Z,39.01
2023-06-11T19:14:58.366Z,39.27
2023-06-11T19:17:26.001Z,39.08
2023-06-11T19:19:54.936Z,38.89
2023-06-11T19:22:22.683Z,39.43
2023-06-11T19:24:50.878Z,39.80
2023-06-11T19:27:19.199Z,39.87
2023-06-11T19:29:47.705Z,39.59
2023-06-11T19:32:17.155Z,39.64
2023-06-11T19:34:44.990Z,39.51
2023-06-11T19:37:14.052Z,39.82
2023-06-11T19:39:41.809Z,39.83
2023-06-11T19:42:10.109Z,40.43
2023-06-11T19:44:37.871Z,40.59
2023-06-11T19:47:06.630Z,40.97
2023-06-11T19:49:35.946Z,41.13
2023-06-11T19:52:04.220Z,41.19
2023-06-11T19:54:46.530Z,41.99
2023-06-11T19:57:18.772Z,42.60
2023-06-11T19:59:46.592Z,42.34
2023-06-11T20:02:14.533Z,41.81
2023-06-11T20:04:44.180Z,42.20
2023-06-11T20:07:12.103Z,42.53
2023-06-11T20:09:41.931Z,42.66
2023-06-11T20:12:10.191Z,42.38
2023-06-11T20:14:38.689Z,42.48
2023-06-11T20:17:06.624Z,42.99
2023-06-11T20:19:37.194Z,43.10
2023-06-11T20:22:07.500Z,42.94
2023-06-11T20:24:35.747Z,43.14
2023-06-11T20:27:03.484Z,43.51
2023-06-11T20:29:32.078Z,43.22
2023-06-11T20:32:00.075Z,43.93
2023-06-11T20:34:28.249Z,43.58
2023-06-11T20:36:56.365Z,43.82
2023-06-11T20:39:26.690Z,43.99
2023-06-11T20:41:54.800Z,44.13
2023-06-11T20:44:22.956Z,44.40
2023-06-11T20:46:51.261Z,44.25
2023-06-11T20:49:19.504Z,44.30
2023-06-11T20:51:47.250Z,44.68
2023-06-11T20:54:15.504Z,44.87
2023-06-11T20:56:44.533Z,45.31
2023-06-11T20:59:12.311Z,44.79
2023-06-11T21:01:40.674Z,44.81
2023-06-11T21:04:08.563Z,45.10
2023-06-11T21:06:39.142Z,44.74
2023-06-11T21:09:06.658Z,44.97
2023-06-11T21:11:34.769Z,44.86
2023-06-11T21:14:13.402Z,44.93
2023-06-11T21:16:42.823Z,45.29
2023-06-11T21:19:10.619Z,45.11
2023-06-11T21:21:39.150Z,45.42
2023-06-11T21:24:07.489Z,46.13
2023-06-11T21:26:36.027Z,45.60
2023-06-11T21:29:05.891Z,45.82
2023-06-11T21:31:34.332Z,46.18
2023-06-11T21:34:02.439Z,46.46
2023-06-11T21:36:30.518Z,47.05
2023-06-11T21:38:58.187Z,46.63
2023-06-11T21:41:27.201Z,46.69
2023-06-11T21:43:54.968Z,47.04
2023-06-11T21:46:24.174Z,47.18
2023-06-11T21:48:52.356Z,46.75
2023-06-11T21:51:21.738Z,46.82
2023-06-11T21:53:49.424Z,46.72
2023-06-11T21:56:17.575Z,46.95
2023-06-11T21:58:45.230Z,46.78
2023-06-11T22:01:13.446Z,46.91
2023-06-11T22:03:42.535Z,47.15
2023-06-11T22:06:11.242Z,46.82
2023-06-11T22:08:38.927Z,47.24
2023-06-11T22:11:07.011Z,47.43
2023-06-11T22:13:34.686Z,47.57
2023-06-11T22:16:03.024Z,47.80
2023-06-11T22:18:33.950Z,47.52
2023-06-11T22:21:03.564Z,48.34
2023-06-11T22:23:45.652Z,47.86
2023-06-11T22:26:19.579Z,47.76
2023-06-11T22:28:47.383Z,47.61
2023-06-11T22:31:15.319Z,47.42
2023-06-11T22:33:44.925Z,47.62
2023-06-11T22:36:14.051Z,48.20
2023-06-11T22:38:42.146Z,48.27
2023-06-11T22:41:10.364Z,48.12
2023-06-11T22:43:38.655Z,48.44
2023-06-11T22:46:06.480Z,49.17
2023-06-11T22:48:34.603Z,48.54
2023-06-11T22:51:02.417Z,48.34
2023-06-11T22:53:33.389Z,48.85
2023-06-11T22:56:02.412Z,48.21
2023-06-11T22:58:31.491Z,47.71
2023-06-11T23:00:59.700Z,48.18
2023-06-11T23:03:27.900Z,48.08
2023-06-11T23:05:55.658Z,48.67
2023-06-11T23:08:23.381Z,47.73
2023-06-11T23:10:52.502Z,47.75
2023-06-11T23:13:20.507Z,47.39
2023-06-11T23:15:48.294Z,47.19
2023-06-11T23:18:19.322Z,46.69
2023-06-11T23:20:47.725Z,46.71
2023-06-11T23:23:17.054Z,47.17
2023-06-11T23:25:45.508Z,47.31
2023-06-11T23:28:15.880Z,47.69
2023-06-11T23:30:43.626Z,47.99
2023-06-11T23:33:14.277Z,47.44
2023-06-11T23:35:43.160Z,47.61
2023-06-11T23:38:11.170Z,47.44
2023-06-11T23:40:39.431Z,46.86
2023-06-11T23:43:07.164Z,47.19
2023-06-11T23:45:36.845Z,46.82
2023-06-11T23:48:04.799Z,47.60
2023-06-11T23:50:33.336Z,47.34
2023-06-11T23:53:01.149Z,47.21
2023-06-11T23:55:29.255Z,47.29
2023-06-11T23:58:18.728Z,47.61
